Time;durP1;ratioP1;P1;durP2;ratioP2;P2;SDS_P1;SDS_P2;PMS_P1;PMS_P2;Temp;Humidity;BMP_temperature;BMP_pressure;BME280_temperature;BME280_humidity;BME280_pressure;Samples;Min_cycle;Max_cycle;Signal;HPM_P1;HPM_P2
2022/02/10 00:35:54;;;;;;;6.00;4.20;;;;;;;8.10;62.63;98482.00;10040212;29;20046;-78
2022/02/10 00:41:15;;;;;;;7.47;4.15;;;;;;;8.11;62.69;98479.97;10038969;29;20418;-78
2022/02/10 00:46:36;;;;;;;5.90;4.13;;;;;;;8.10;62.81;98481.25;10024924;29;20053;-78
2022/02/10 00:51:57;;;;;;;8.82;4.07;;;;;;;8.06;62.57;98484.44;10024930;29;20117;-78
2022/02/10 00:57:20;;;;;;;7.70;3.72;;;;;;;8.08;62.81;98495.72;10037338;29;20452;-78
2022/02/10 01:30:29;;;;;;;6.50;3.72;;;;;;;8.12;62.40;98482.19;10018102;29;20080;-78
2022/02/10 01:35:49;;;;;;;4.90;3.13;;;;;;;8.14;62.31;98485.16;10023289;29;20115;-78
2022/02/10 02:03:54;;;;;;;6.45;4.00;;;;;;;8.09;62.66;98454.75;10035432;29;20057;-78
2022/02/10 02:09:16;;;;;;;6.53;4.35;;;;;;;8.08;62.66;98454.00;10009616;29;20124;-78
2022/02/10 02:14:37;;;;;;;8.95;4.28;;;;;;;8.06;62.79;98451.06;10022202;29;20413;-78
2022/02/10 02:19:58;;;;;;;8.88;4.35;;;;;;;8.04;62.96;98453.66;10021959;29;20518;-78
2022/02/10 02:25:21;;;;;;;6.32;3.97;;;;;;;8.02;62.66;98442.38;10034518;29;20050;-78
2022/02/10 03:09:30;;;;;;;8.23;3.75;;;;;;;7.80;63.21;98395.91;10010427;29;20041;-78
2022/02/10 03:14:57;;;;;;;7.85;3.78;;;;;;;7.84;62.93;98397.03;10018893;29;20049;-78
2022/02/10 03:20:37;;;;;;;9.05;3.78;;;;;;;7.85;62.87;98386.63;10028091;29;20128;-78
2022/02/10 04:16:43;;;;;;;8.73;4.07;;;;;;;7.13;63.62;98341.41;10076845;29;20025;-80
2022/02/10 04:22:22;;;;;;;7.68;3.90;;;;;;;6.98;63.53;98330.34;11234914;24;20858;31
2022/02/10 05:36:13;;;;;;;6.97;4.07;;;;;;;5.85;65.89;98290.09;9938828;29;20070;-77
2022/02/10 05:58:12;;;;;;;8.88;3.85;;;;;;;5.68;66.50;98277.47;9932452;29;20065;-76
2022/02/10 06:49:11;;;;;;;8.02;4.00;;;;;;;8.66;64.30;98287.91;9948184;29;20058;-77
2022/02/10 10:05:45;;;;;;;3.30;1.90;;;;;;;36.79;9.87;98182.13;9921128;29;20115;-80
2022/02/10 10:17:43;;;;;;;7.22;2.30;;;;;;;37.68;9.08;98173.41;9936305;29;20071;-83
2022/02/10 10:56:09;;;;;;;3.38;1.90;;;;;;;29.05;14.07;98089.69;9920921;29;20486;-78
2022/02/10 11:22:09;;;;;;;3.60;2.03;;;;;;;24.71;17.78;98056.66;9924255;29;20112;-78
2022/02/10 11:36:38;;;;;;;4.00;1.80;;;;;;;21.29;21.97;98025.84;9923920;29;20043;-79
2022/02/10 13:02:46;;;;;;;4.25;2.30;;;;;;;16.13;28.81;97962.25;9916590;29;20498;-80
2022/02/10 14:15:17;;;;;;;6.88;2.80;;;;;;;13.69;37.33;97955.44;9924332;29;20055;-77
2022/02/10 14:26:20;;;;;;;6.03;2.97;;;;;;;13.47;36.65;97940.09;9912234;29;20047;-78
2022/02/10 14:31:41;;;;;;;7.20;3.38;;;;;;;13.02;36.93;97947.88;9927186;29;20059;-78
2022/02/10 16:24:16;;;;;;;6.73;3.80;;;;;;;10.78;44.41;97975.16;9878092;30;20059;-77
2022/02/10 16:29:37;;;;;;;7.82;3.58;;;;;;;10.78;44.14;97966.78;9903710;30;20074;-78
2022/02/10 16:35:01;;;;;;;9.70;3.90;;;;;;;10.75;44.80;97977.09;9889904;30;20453;-77
2022/02/10 16:40:27;;;;;;;5.95;4.10;;;;;;;10.68;44.67;97974.47;9891494;30;20118;-77
2022/02/10 16:45:55;;;;;;;7.22;4.13;;;;;;;10.61;45.39;97978.88;9941977;29;20486;-79
2022/02/10 16:51:16;;;;;;;8.02;3.97;;;;;;;10.59;45.46;97981.53;9926276;29;20479;-78
2022/02/10 16:56:58;;;;;;;9.68;4.68;;;;;;;10.52;45.25;97994.34;9939150;29;20059;-77
2022/02/10 17:14:14;;;;;;;11.23;6.23;;;;;;;10.54;46.77;98021.66;9951219;29;20482;-78
2022/02/10 17:20:00;;;;;;;10.38;5.95;;;;;;;10.50;46.69;98036.03;9932624;29;20062;-75
2022/02/10 17:25:29;;;;;;;10.80;6.50;;;;;;;10.46;47.41;98024.59;9930419;29;20054;-77
2022/02/10 17:36:35;;;;;;;9.57;5.60;;;;;;;10.41;48.36;98033.25;9913895;29;20057;-76
2022/02/10 17:53:28;;;;;;;10.63;6.32;;;;;;;10.26;48.28;98051.75;9934534;29;20046;-80
2022/02/10 17:58:49;;;;;;;11.10;5.72;;;;;;;10.27;48.75;98046.91;9945856;29;20047;-81
2022/02/10 18:04:10;;;;;;;11.60;5.95;;;;;;;10.25;48.72;98058.66;9981186;29;20482;-77
2022/02/10 18:14:59;;;;;;;11.47;5.97;;;;;;;10.21;48.88;98071.53;9947880;29;20413;-76
2022/02/10 18:20:40;;;;;;;8.88;5.65;;;;;;;10.20;49.32;98075.66;9961816;29;20049;-77
2022/02/10 19:11:09;;;;;;;10.77;5.47;;;;;;;9.94;50.71;98091.91;9895108;30;20051;-76
2022/02/10 19:16:30;;;;;;;10.18;4.78;;;;;;;9.92;50.47;98100.09;9906728;30;20055;-82
2022/02/10 19:21:51;;;;;;;11.65;6.25;;;;;;;9.85;50.94;98097.44;9914146;30;20538;-80
2022/02/10 19:27:13;;;;;;;9.20;5.82;;;;;;;9.83;50.80;98103.59;9908786;30;20043;-77
2022/02/10 19:32:34;;;;;;;9.30;5.38;;;;;;;9.82;50.89;98102.13;9912612;30;20050;-80
2022/02/10 19:38:01;;;;;;;8.40;5.25;;;;;;;9.78;51.11;98099.03;9894446;30;20384;-78
2022/02/10 19:43:23;;;;;;;7.05;5.18;;;;;;;9.81;51.34;98100.66;9887686;30;20074;-81
2022/02/10 19:48:44;;;;;;;11.55;6.07;;;;;;;9.74;51.26;98104.28;9861416;30;20419;-79
2022/02/10 19:54:05;;;;;;;8.50;5.40;;;;;;;9.70;51.46;98101.19;9883260;30;20075;-78
2022/02/10 19:59:29;;;;;;;8.82;5.55;;;;;;;9.65;51.69;98099.41;9858511;30;20557;-78
2022/02/10 20:04:49;;;;;;;9.40;5.45;;;;;;;9.61;51.94;98090.75;9860602;29;20078;-78
2022/02/10 20:10:10;;;;;;;10.88;4.78;;;;;;;9.56;52.08;98088.97;9919771;29;20448;-78
2022/02/10 20:15:34;;;;;;;12.63;5.68;;;;;;;9.41;52.20;98085.09;9932065;29;20073;-78
2022/02/10 20:20:55;;;;;;;8.45;5.10;;;;;;;9.28;52.25;98096.59;9932618;29;20042;-79
2022/02/10 20:26:16;;;;;;;9.88;5.05;;;;;;;9.19;52.43;98097.28;9919913;29;20054;-80
2022/02/10 20:31:39;;;;;;;7.38;4.55;;;;;;;8.94;52.73;98096.69;9931491;29;20115;-77
2022/02/10 20:37:03;;;;;;;6.90;4.50;;;;;;;8.73;53.17;98092.28;9920107;29;20099;-77
2022/02/10 20:42:28;;;;;;;7.28;4.72;;;;;;;8.56;53.77;98084.69;9927306;29;20055;-81
2022/02/10 20:47:48;;;;;;;8.80;4.72;;;;;;;8.41;53.84;98073.00;9951466;29;20046;-77
2022/02/10 20:53:09;;;;;;;7.28;4.22;;;;;;;8.28;53.80;98080.31;9975092;29;20054;-77
2022/02/10 20:58:31;;;;;;;8.50;4.30;;;;;;;8.17;54.43;98075.22;9961456;29;20060;-78
2022/02/10 21:03:52;;;;;;;6.35;3.85;;;;;;;8.05;54.42;98074.25;9924941;29;20042;-77
2022/02/10 21:09:35;;;;;;;6.63;4.28;;;;;;;7.93;54.70;98076.03;9927600;29;20047;-77
2022/02/10 21:14:54;;;;;;;7.70;5.50;;;;;;;7.82;55.15;98068.16;9921660;29;20129;-76
2022/02/10 21:20:15;;;;;;;8.48;3.97;;;;;;;7.72;55.45;98065.25;9924668;29;20047;-77
2022/02/10 21:25:38;;;;;;;7.95;3.90;;;;;;;7.76;55.58;98057.25;9911656;29;20054;-76
2022/02/10 21:31:03;;;;;;;6.43;3.77;;;;;;;7.78;55.55;98051.88;9911590;29;20051;-76
2022/02/10 21:48:18;;;;;;;7.63;3.47;;;;;;;7.68;55.79;98051.75;9990029;29;20049;-78
2022/02/10 22:04:36;;;;;;;6.18;3.72;;;;;;;7.42;56.73;98058.63;9961061;29;20053;-79
2022/02/10 22:25:26;;;;;;;9.70;3.90;;;;;;;7.79;56.69;98045.00;9986808;29;20042;-79
2022/02/10 22:32:04;;;;;;;5.32;3.35;;;;;;;7.80;56.86;98051.28;9966623;29;20058;-79
2022/02/10 22:39:14;;;;;;;5.85;3.63;;;;;;;7.81;56.95;98045.16;9906682;29;20483;-79
2022/02/10 22:45:03;;;;;;;6.40;3.63;;;;;;;7.82;56.96;98041.09;9896852;29;20063;-79
2022/02/10 22:50:52;;;;;;;5.30;3.55;;;;;;;7.80;57.01;98040.16;9889897;29;20069;-79
2022/02/10 22:56:44;;;;;;;6.50;3.38;;;;;;;7.81;57.09;98041.66;9898148;30;20101;-79
2022/02/10 23:02:05;;;;;;;5.03;3.28;;;;;;;7.79;57.12;98039.44;9894594;30;20062;-79
2022/02/10 23:08:01;;;;;;;9.93;4.13;;;;;;;7.80;57.01;98040.16;9949930;29;20413;-79
2022/02/10 23:13:27;;;;;;;6.90;3.88;;;;;;;7.81;57.22;98038.88;9945685;29;20051;-79
2022/02/10 23:18:49;;;;;;;6.05;3.67;;;;;;;7.75;57.19;98044.66;9946494;29;20050;-79
2022/02/10 23:24:37;;;;;;;5.57;3.45;;;;;;;7.73;56.98;98042.47;9964808;29;20054;-79
2022/02/10 23:29:58;;;;;;;6.00;3.05;;;;;;;7.73;56.80;98042.47;9957580;29;20050;-79
2022/02/10 23:46:45;;;;;;;6.30;4.03;;;;;;;7.52;57.38;98039.28;9961616;29;20463;-79
2022/02/10 23:52:08;;;;;;;6.25;3.75;;;;;;;7.40;57.68;98027.16;9957309;29;20520;-79
2022/02/10 23:58:21;;;;;;;6.78;3.45;;;;;;;7.31;57.81;98019.44;9945090;29;20054;-79
